Terminal Aerodrome Forecast
Issued by NWS

Home | Current Version | Previous Version | Text Only | Print | Product List | Glossary On
Versions: 1 2 3 4 5 6 7 8 9 10 11 12 13 14 15 16 17 18 19 20
000
FTUS41 KBGM 210900 AAA
TAFITH
TAF AMD
KITH 210901Z 2109/2206 17007KT P6SM SCT200
     FM211600 22010KT P6SM SCT150
     FM220000 16007KT P6SM BKN150=

USA.gov is the U.S. government's official web portal to all federal, state and local government web resources and services.